TimeEST,TemperatureF,Dew PointF,Humidity,Sea Level PressureIn,VisibilityMPH,Wind Direction,Wind SpeedMPH,Gust SpeedMPH,PrecipitationIn,Events,Conditions,WindDirDegrees,DateUTC
12:17 AM,28.0,24.8,88,30.10,10.0,NE,10.4,-,N/A,,Overcast,40,2013-03-06 05:17:00
12:37 AM,28.2,25.3,89,30.09,10.0,NNE,13.8,-,N/A,,Overcast,30,2013-03-06 05:37:00
12:56 AM,28.2,25.7,90,30.10,10.0,NNE,10.4,-,N/A,,Overcast,30,2013-03-06 05:56:00
1:17 AM,28.0,25.7,91,30.10,10.0,NE,11.5,-,N/A,,Overcast,40,2013-03-06 06:17:00
1:36 AM,28.0,25.5,90,30.10,10.0,NNE,10.4,-,N/A,,Overcast,30,2013-03-06 06:36:00
1:56 AM,28.0,25.5,90,30.11,10.0,NNE,9.2,-,N/A,,Overcast,30,2013-03-06 06:56:00
2:17 AM,27.9,25.7,92,30.12,5.0,NNE,10.4,-,N/A,,Overcast,30,2013-03-06 07:17:00
2:36 AM,27.9,26.1,93,30.13,5.0,NNE,8.1,-,N/A,,Overcast,20,2013-03-06 07:36:00
2:57 AM,27.5,26.1,94,30.13,4.0,NNE,9.2,-,N/A,,Overcast,20,2013-03-06 07:57:00
3:17 AM,27.5,26.1,94,30.14,5.0,NNE,8.1,-,N/A,,Overcast,20,2013-03-06 08:17:00
3:36 AM,27.5,26.2,95,30.14,5.0,North,6.9,-,N/A,,Overcast,10,2013-03-06 08:36:00
3:57 AM,27.5,26.1,94,30.14,10.0,North,8.1,-,N/A,,Overcast,360,2013-03-06 08:57:00
4:17 AM,27.5,26.2,95,30.14,7.0,North,6.9,-,N/A,,Overcast,10,2013-03-06 09:17:00
4:36 AM,27.5,26.4,96,30.15,3.0,North,8.1,-,N/A,Snow,Light Snow,360,2013-03-06 09:36:00
4:57 AM,27.7,26.4,95,30.15,2.5,North,6.9,-,N/A,Snow,Light Snow,10,2013-03-06 09:57:00
5:17 AM,27.9,26.6,95,30.16,2.0,North,5.8,-,N/A,Snow,Light Snow,350,2013-03-06 10:17:00
5:36 AM,27.9,26.4,94,30.17,3.0,North,6.9,-,N/A,Snow,Light Snow,350,2013-03-06 10:36:00
5:57 AM,27.5,26.2,95,30.16,5.0,NNE,8.1,-,N/A,Snow,Light Snow,20,2013-03-06 10:57:00
6:50 AM,26.6,26.6,100,30.17,2.0,North,13.8,-,N/A,Snow,Light Snow,10,2013-03-06 11:50:00
7:50 AM,26.6,24.8,93,30.18,7.0,North,11.5,-,N/A,Snow,Light Snow,360,2013-03-06 12:50:00
8:50 AM,26.6,24.8,93,30.19,5.0,North,13.8,-,N/A,Snow,Light Snow,360,2013-03-06 13:50:00
9:50 AM,26.6,24.8,93,30.19,2.0,North,9.2,-,N/A,Snow,Light Snow,360,2013-03-06 14:50:00
10:50 AM,26.6,23.0,86,30.22,2.0,North,11.5,-,N/A,Snow,Light Snow,360,2013-03-06 15:50:00
11:50 AM,26.6,23.0,86,30.23,1.8,North,10.4,-,N/A,Snow,Light Snow,350,2013-03-06 16:50:00
12:50 PM,26.6,21.2,80,30.23,2.0,North,11.5,-,N/A,Snow,Light Snow,10,2013-03-06 17:50:00
1:50 PM,26.6,21.2,80,30.22,2.0,NNW,9.2,-,N/A,Snow,Light Snow,340,2013-03-06 18:50:00
2:50 PM,26.6,23.0,86,30.21,4.0,NNE,8.1,-,N/A,Snow,Light Snow,20,2013-03-06 19:50:00
3:55 PM,26.6,21.2,80,30.21,7.0,NNE,10.4,-,N/A,Snow,Light Snow,30,2013-03-06 20:55:00
4:50 PM,24.8,21.2,86,30.21,7.0,NE,9.2,-,N/A,Snow,Light Snow,40,2013-03-06 21:50:00
5:50 PM,24.8,21.2,86,30.22,5.0,NE,9.2,-,N/A,Snow,Light Snow,40,2013-03-06 22:50:00
6:50 PM,23.0,21.2,93,30.23,10.0,NE,8.1,-,N/A,,Overcast,40,2013-03-06 23:50:00
7:50 PM,23.0,19.4,86,30.25,10.0,North,4.6,-,N/A,,Overcast,360,2013-03-07 00:50:00
8:50 PM,23.0,15.8,74,30.26,7.0,NNW,5.8,-,N/A,Snow,Light Snow,340,2013-03-07 01:50:00
9:47 PM,21.2,17.6,86,30.26,10.0,NNE,9.2,-,N/A,,Overcast,20,2013-03-07 02:47:00
10:17 PM,21.2,17.4,85,30.27,3.0,NNW,3.5,-,N/A,Snow,Light Snow,330,2013-03-07 03:17:00
10:36 PM,20.8,17.2,86,30.27,3.0,NNW,3.5,-,N/A,Snow,Light Snow,330,2013-03-07 03:36:00
10:57 PM,20.3,17.6,89,30.27,2.0,NW,3.5,-,N/A,Snow,Light Snow,320,2013-03-07 03:57:00
11:17 PM,20.3,17.2,88,30.26,5.0,NW,4.6,-,N/A,Snow,Light Snow,320,2013-03-07 04:17:00
11:36 PM,20.3,16.0,83,30.26,7.0,NNW,4.6,-,N/A,Snow,Light Snow,330,2013-03-07 04:36:00
11:57 PM,18.9,14.4,83,30.26,10.0,Calm,Calm,-,N/A,,Scattered Clouds,0,2013-03-07 04:57:00